Time;durP1;ratioP1;P1;durP2;ratioP2;P2;SDS_P1;SDS_P2;PMS_P1;PMS_P2;Temp;Humidity;BMP_temperature;BMP_pressure;BME280_temperature;BME280_humidity;BME280_pressure;Samples;Min_cycle;Max_cycle;Signal;HPM_P1;HPM_P2
2022/08/04 00:01:51;;;;;;;30.10;27.30;;;;;;;17.30;100.00;99124.98;104918;1274;61104;-69
2022/08/04 00:04:31;;;;;;;34.00;30.70;;;;;;;17.28;100.00;99123.98;104937;1274;61345;-70
2022/08/04 00:07:31;;;;;;;31.70;28.90;;;;;;;17.26;100.00;99124.00;105039;1271;74632;-70
2022/08/04 00:10:03;;;;;;;31.70;28.90;;;;;;;17.23;100.00;99122.13;105201;1271;70236;-69
2022/08/04 00:12:40;;;;;;;30.50;27.80;;;;;;;17.20;100.00;99119.71;105222;1271;74135;-69
2022/08/04 00:15:10;;;;;;;31.00;28.50;;;;;;;17.17;100.00;99116.20;105442;1271;60587;-70
2022/08/04 00:17:44;;;;;;;32.40;29.70;;;;;;;17.15;100.00;99117.28;105262;1271;61941;-70
2022/08/04 00:20:16;;;;;;;32.90;30.00;;;;;;;17.13;100.00;99114.42;105357;1271;74169;-70
2022/08/04 00:22:45;;;;;;;31.60;28.80;;;;;;;17.11;100.00;99114.22;104923;1271;69432;-70
2022/08/04 00:25:12;;;;;;;28.10;25.70;;;;;;;17.09;100.00;99117.14;105162;1271;71325;-71
2022/08/04 00:27:39;;;;;;;28.20;25.60;;;;;;;17.05;100.00;99118.38;105145;1271;60462;-70
2022/08/04 00:30:07;;;;;;;28.00;25.50;;;;;;;17.00;100.00;99119.70;105217;1271;61014;-70
2022/08/04 00:32:34;;;;;;;29.20;26.50;;;;;;;16.98;100.00;99118.15;105185;1271;73807;-69
2022/08/04 00:35:01;;;;;;;34.80;31.70;;;;;;;16.94;100.00;99118.01;105210;1271;69608;-69
2022/08/04 00:37:27;;;;;;;35.50;32.10;;;;;;;16.94;100.00;99117.27;105222;1271;73593;-70
2022/08/04 00:39:55;;;;;;;32.00;28.60;;;;;;;16.92;100.00;99124.21;105216;1271;61098;-70
2022/08/04 00:42:25;;;;;;;32.20;29.30;;;;;;;16.88;100.00;99122.27;105326;1271;60830;-70
2022/08/04 00:45:10;;;;;;;35.90;32.70;;;;;;;16.84;100.00;99119.92;104968;1271;72803;-69
2022/08/04 00:48:00;;;;;;;34.60;31.50;;;;;;;16.81;100.00;99126.66;105205;1271;70412;-70
2022/08/04 00:50:43;;;;;;;35.00;31.70;;;;;;;16.77;100.00;99126.27;104437;1278;74438;-70
2022/08/04 00:53:17;;;;;;;35.90;32.70;;;;;;;16.74;100.00;99123.55;104572;1280;61149;-70
2022/08/04 00:55:44;;;;;;;37.10;33.70;;;;;;;16.72;100.00;99121.71;104529;1279;61957;-70
2022/08/04 00:58:23;;;;;;;34.90;31.90;;;;;;;16.69;100.00;99126.96;104555;1280;74821;-70
2022/08/04 01:00:58;;;;;;;34.70;31.60;;;;;;;16.67;100.00;99129.89;104523;1278;69313;-70
2022/08/04 01:04:02;;;;;;;33.70;30.70;;;;;;;16.64;100.00;99132.60;104476;1278;74112;-71
2022/08/04 01:07:18;;;;;;;34.90;31.80;;;;;;;16.62;100.00;99128.31;104493;1280;62011;-70
2022/08/04 01:10:16;;;;;;;37.00;33.60;;;;;;;16.59;100.00;99128.42;104489;1280;62124;-70
2022/08/04 01:12:43;;;;;;;39.80;35.90;;;;;;;16.57;100.00;99124.99;104507;1280;73528;-70
2022/08/04 01:15:19;;;;;;;35.80;32.70;;;;;;;16.56;100.00;99125.13;104534;1280;70268;-70
2022/08/04 01:18:00;;;;;;;36.50;33.10;;;;;;;16.53;100.00;99124.27;104285;1280;74350;-70
2022/08/04 01:20:34;;;;;;;35.90;32.60;;;;;;;16.51;100.00;99124.46;104506;1280;61276;-70
2022/08/04 01:23:40;;;;;;;39.50;36.00;;;;;;;16.49;100.00;99122.50;104406;1281;60650;-70
2022/08/04 01:26:22;;;;;;;37.70;34.30;;;;;;;16.47;100.00;99125.77;103850;1286;72545;-70
2022/08/04 01:29:04;;;;;;;37.10;33.60;;;;;;;16.44;100.00;99129.02;104416;1280;69581;-70
2022/08/04 01:31:45;;;;;;;36.30;32.90;;;;;;;16.43;100.00;99125.56;104492;1280;73164;-70
2022/08/04 01:34:15;;;;;;;38.30;34.70;;;;;;;16.42;100.00;99126.95;104480;1280;61003;-70
2022/08/04 01:36:46;;;;;;;39.10;35.50;;;;;;;16.39;100.00;99122.10;104544;1280;60774;-70
2022/08/04 01:42:05;;;;;;;37.70;34.30;;;;;;;16.37;100.00;99120.92;104526;1280;69783;-70
2022/08/04 01:44:34;;;;;;;37.10;33.90;;;;;;;16.34;100.00;99124.17;104707;1280;73325;-70
2022/08/04 01:47:01;;;;;;;35.90;32.70;;;;;;;16.32;100.00;99124.39;104516;1280;60675;-69
2022/08/04 01:49:31;;;;;;;34.20;30.90;;;;;;;16.29;100.00;99124.45;104486;1280;62248;-69
2022/08/04 01:52:01;;;;;;;32.70;29.80;;;;;;;16.26;100.00;99122.59;104460;1280;76818;-70
2022/08/04 01:54:29;;;;;;;;;;;;;;;16.22;100.00;99122.02;104575;1280;70456;-70
2022/08/04 01:56:57;;;;;;;33.50;30.60;;;;;;;16.18;100.00;99118.23;104551;1279;72657;-69
2022/08/04 01:59:24;;;;;;;34.80;31.60;;;;;;;16.16;100.00;99119.71;104423;1280;60624;-69
2022/08/04 02:01:51;;;;;;;32.80;29.80;;;;;;;16.13;100.00;99113.00;104493;1280;61261;-69
2022/08/04 02:04:19;;;;;;;33.20;30.00;;;;;;;16.10;100.00;99115.21;104969;1271;73342;-70
2022/08/04 02:07:05;;;;;;;29.10;26.60;;;;;;;16.06;100.00;99114.64;105251;1271;69217;-69
2022/08/04 02:09:40;;;;;;;33.10;30.20;;;;;;;16.02;100.00;99111.07;105221;1271;73259;-70
2022/08/04 02:12:23;;;;;;;32.40;29.50;;;;;;;15.98;100.00;99109.94;104994;1272;60415;-69
2022/08/04 02:14:58;;;;;;;34.70;31.40;;;;;;;15.96;100.00;99108.16;105235;1271;62155;-69
2022/08/04 02:17:32;;;;;;;32.70;29.80;;;;;;;15.94;100.00;99107.80;105308;1271;74398;-69
2022/08/04 02:20:14;;;;;;;33.40;30.40;;;;;;;15.93;100.00;99109.52;105205;1271;68817;-70
2022/08/04 02:23:06;;;;;;;33.40;30.40;;;;;;;15.91;100.00;99108.98;105319;1271;75213;-70
2022/08/04 02:25:43;;;;;;;34.80;31.60;;;;;;;15.89;100.00;99106.98;105195;1271;60591;-70
2022/08/04 02:28:47;;;;;;;35.10;31.90;;;;;;;15.88;100.00;99107.98;105222;1271;60906;-70
2022/08/04 02:31:31;;;;;;;32.10;29.20;;;;;;;15.87;100.00;99105.04;104522;1279;75650;-70
2022/08/04 02:34:28;;;;;;;31.20;28.40;;;;;;;15.85;100.00;99105.04;104551;1280;69420;-70
2022/08/04 02:36:56;;;;;;;33.60;30.50;;;;;;;15.83;100.00;99105.22;103941;1284;74132;-69
2022/08/04 02:39:29;;;;;;;34.30;31.30;;;;;;;15.83;100.00;99105.79;103923;1284;61185;-70
2022/08/04 02:41:58;;;;;;;34.20;30.80;;;;;;;15.82;100.00;99102.41;103870;1286;60387;-70
2022/08/04 02:44:27;;;;;;;35.60;32.10;;;;;;;15.83;100.00;99100.77;103940;1284;75347;-70
2022/08/04 02:46:54;;;;;;;37.10;33.80;;;;;;;15.83;100.00;99099.68;104051;1284;70724;-71
2022/08/04 02:49:22;;;;;;;35.30;32.20;;;;;;;15.83;100.00;99096.26;103961;1284;73421;-70
2022/08/04 02:51:51;;;;;;;33.00;30.10;;;;;;;15.84;100.00;99095.80;103924;1284;60711;-69
2022/08/04 02:54:22;;;;;;;32.80;30.00;;;;;;;15.84;100.00;99094.89;103844;1286;61007;-69
2022/08/04 02:56:54;;;;;;;35.90;32.60;;;;;;;15.82;100.00;99091.30;103980;1284;74247;-69
2022/08/04 02:59:25;;;;;;;35.60;32.40;;;;;;;15.82;100.00;99091.37;103982;1285;69684;-69
2022/08/04 03:01:55;;;;;;;36.80;33.10;;;;;;;15.80;100.00;99088.77;104001;1284;74452;-69
2022/08/04 03:05:02;;;;;;;37.70;34.30;;;;;;;15.80;100.00;99089.85;104051;1284;61453;-70
2022/08/04 03:07:44;;;;;;;41.70;37.70;;;;;;;15.82;100.00;99090.83;103831;1284;60857;-70
2022/08/04 03:10:41;;;;;;;36.10;32.90;;;;;;;15.84;100.00;99090.65;103951;1284;75295;-70
2022/08/04 03:13:32;;;;;;;39.20;35.50;;;;;;;15.84;100.00;99097.47;104121;1283;70582;-70
2022/08/04 03:16:12;;;;;;;36.80;33.40;;;;;;;15.83;100.00;99095.55;104566;1279;74372;-70
2022/08/04 03:19:03;;;;;;;35.90;32.80;;;;;;;15.82;100.00;99096.13;104471;1279;60596;-69
2022/08/04 03:22:10;;;;;;;34.40;31.20;;;;;;;15.82;100.00;99096.13;104475;1279;61113;-69
2022/08/04 03:25:12;;;;;;;31.80;28.90;;;;;;;15.83;100.00;99094.12;104559;1279;74459;-69
2022/08/04 03:28:04;;;;;;;30.20;27.50;;;;;;;15.82;100.00;99096.00;104123;1282;69469;-69
2022/08/04 03:31:06;;;;;;;28.50;26.10;;;;;;;15.80;100.00;99095.61;104459;1279;73294;-69
2022/08/04 03:34:02;;;;;;;32.50;29.60;;;;;;;15.79;100.00;99098.35;104189;1279;60646;-70
2022/08/04 03:36:48;;;;;;;32.40;29.60;;;;;;;15.82;100.00;99100.45;104367;1280;62437;-69
2022/08/04 03:39:43;;;;;;;32.90;29.90;;;;;;;15.86;100.00;99099.55;104231;1279;75536;-69
2022/08/04 03:42:25;;;;;;;28.50;26.10;;;;;;;15.93;100.00;99106.85;104397;1279;69359;-69
2022/08/04 03:45:04;;;;;;;31.20;28.60;;;;;;;16.28;100.00;99109.99;104946;1271;73523;-70
2022/08/04 03:47:43;;;;;;;26.30;24.00;;;;;;;16.92;100.00;99111.87;104941;1271;60479;-69
2022/08/04 03:53:07;;;;;;;25.70;23.50;;;;;;;17.50;100.00;99109.95;104924;1271;60466;-69
2022/08/04 03:53:43;;;;;;;23.00;21.10;;;;;;;18.14;100.00;99109.61;104943;1271;73841;-70
2022/08/04 03:56:30;;;;;;;21.30;19.60;;;;;;;18.61;100.00;99104.63;104888;1271;68848;-69
2022/08/04 03:59:23;;;;;;;23.20;21.10;;;;;;;19.12;100.00;99099.27;105174;1271;74321;-69
2022/08/04 04:02:27;;;;;;;23.00;21.00;;;;;;;19.62;100.00;99102.98;105210;1271;60524;-70
2022/08/04 04:05:16;;;;;;;24.30;22.30;;;;;;;20.24;100.00;99102.39;105252;1271;60783;-69
2022/08/04 04:08:17;;;;;;;24.70;22.50;;;;;;;20.80;100.00;99098.55;105224;1271;75147;-69
2022/08/04 04:11:21;;;;;;;24.40;22.40;;;;;;;21.48;100.00;99100.41;105230;1271;70201;-70
2022/08/04 04:14:10;;;;;;;22.30;20.40;;;;;;;22.05;100.00;99104.34;105203;1271;74289;-70
2022/08/04 04:16:55;;;;;;;23.00;20.80;;;;;;;22.48;100.00;99099.23;104934;1271;61185;-69
2022/08/04 04:19:44;;;;;;;21.10;19.50;;;;;;;22.97;100.00;99102.05;104895;1271;60497;-70
2022/08/04 04:22:42;;;;;;;19.40;17.80;;;;;;;23.40;100.00;99100.25;104940;1271;75486;-70
2022/08/04 04:25:33;;;;;;;20.80;18.90;;;;;;;23.86;100.00;99103.54;104915;1271;69265;-68
2022/08/04 04:28:28;;;;;;;19.30;17.80;;;;;;;24.33;100.00;99105.24;104862;1271;74944;-70
2022/08/04 04:31:04;;;;;;;18.20;16.70;;;;;;;24.66;100.00;99104.62;104908;1271;60801;-69
2022/08/04 04:33:53;;;;;;;18.40;16.90;;;;;;;24.90;100.00;99103.73;105138;1271;60382;-70
2022/08/04 04:36:47;;;;;;;18.10;16.70;;;;;;;25.09;100.00;99104.01;105289;1271;75497;-70
2022/08/04 04:39:28;;;;;;;18.10;16.80;;;;;;;25.15;100.00;99107.54;105221;1271;70709;-70
2022/08/04 04:42:24;;;;;;;18.40;17.00;;;;;;;25.38;100.00;99107.32;105260;1271;73443;-70
2022/08/04 04:45:08;;;;;;;17.80;16.20;;;;;;;25.75;100.00;99107.77;104972;1271;60500;-69
2022/08/04 04:47:53;;;;;;;17.40;16.10;;;;;;;25.93;100.00;99110.24;105279;1271;60455;-72
2022/08/04 04:50:30;;;;;;;18.60;17.00;;;;;;;26.06;100.00;99106.73;105217;1271;74852;-71
2022/08/04 04:53:05;;;;;;;19.20;17.60;;;;;;;26.35;100.00;99111.27;105212;1271;70603;-72
2022/08/04 04:55:42;;;;;;;18.90;17.40;;;;;;;26.65;100.00;99108.45;105217;1271;73329;-72
2022/08/04 04:58:14;;;;;;;20.30;18.80;;;;;;;26.85;100.00;99107.61;105236;1271;60494;-72
2022/08/04 05:00:46;;;;;;;22.60;20.70;;;;;;;26.93;100.00;99106.33;105206;1271;61030;-73
2022/08/04 05:03:41;;;;;;;20.70;19.10;;;;;;;26.85;100.00;99108.79;105211;1271;73788;-72
2022/08/04 05:06:49;;;;;;;22.10;20.50;;;;;;;26.68;100.00;99110.67;105190;1270;69203;-72
2022/08/04 05:09:53;;;;;;;21.70;20.00;;;;;;;26.70;100.00;99109.20;105220;1271;72485;-72
2022/08/04 05:12:51;;;;;;;23.50;21.10;;;;;;;26.83;100.00;99105.55;105214;1271;60488;-72
2022/08/04 05:15:22;;;;;;;22.80;20.90;;;;;;;26.83;100.00;99102.85;105230;1271;60523;-73
2022/08/04 05:17:51;;;;;;;22.80;20.90;;;;;;;26.62;100.00;99105.60;105180;1271;74959;-72
2022/08/04 05:20:43;;;;;;;23.60;21.70;;;;;;;26.51;100.00;99108.16;105220;1271;70607;-72
2022/08/04 05:23:15;;;;;;;22.10;20.20;;;;;;;26.67;100.00;99105.48;104596;1277;73246;-72
2022/08/04 05:25:50;;;;;;;21.70;19.90;;;;;;;26.77;100.00;99104.35;104601;1278;60790;-73
2022/08/04 05:28:26;;;;;;;21.60;19.80;;;;;;;26.87;100.00;99104.34;104620;1277;60530;-71
2022/08/04 05:31:09;;;;;;;20.30;18.80;;;;;;;27.00;100.00;99107.99;104647;1278;74356;-72
2022/08/04 05:33:46;;;;;;;19.60;17.80;;;;;;;27.14;100.00;99109.89;104540;1278;70171;-72
2022/08/04 05:36:19;;;;;;;18.90;17.50;;;;;;;27.27;100.00;99114.08;104632;1277;73649;-73
2022/08/04 05:38:51;;;;;;;19.00;17.30;;;;;;;27.43;100.00;99112.58;104698;1277;60622;-73
2022/08/04 05:41:20;;;;;;;18.30;16.70;;;;;;;27.60;100.00;99115.46;104616;1277;60885;-73
2022/08/04 05:43:48;;;;;;;17.30;16.00;;;;;;;27.74;100.00;99116.02;104651;1277;75339;-73
2022/08/04 05:46:16;;;;;;;17.70;16.30;;;;;;;27.94;100.00;99116.75;104682;1277;70297;-72
2022/08/04 05:48:45;;;;;;;17.40;16.00;;;;;;;28.20;100.00;99114.34;104620;1277;73597;-72
2022/08/04 05:51:14;;;;;;;16.10;14.70;;;;;;;28.34;100.00;99112.72;104769;1278;60736;-74
2022/08/04 05:53:43;;;;;;;16.10;14.40;;;;;;;28.44;100.00;99115.70;104718;1277;60841;-72
2022/08/04 05:56:13;;;;;;;15.70;14.50;;;;;;;28.62;100.00;99117.73;104796;1277;76192;-73
2022/08/04 05:58:41;;;;;;;14.30;13.20;;;;;;;28.88;100.00;99116.04;104729;1277;69195;-73
2022/08/04 06:01:10;;;;;;;14.70;13.50;;;;;;;29.12;100.00;99116.83;104980;1271;73222;-73
2022/08/04 06:03:38;;;;;;;15.30;14.00;;;;;;;29.30;100.00;99117.02;105305;1271;61013;-72
2022/08/04 06:06:08;;;;;;;13.70;12.30;;;;;;;29.48;100.00;99120.23;105003;1274;60787;-72
2022/08/04 06:08:34;;;;;;;14.80;13.60;;;;;;;29.57;100.00;99117.04;105343;1271;74304;-73
2022/08/04 06:11:05;;;;;;;15.20;13.90;;;;;;;29.63;100.00;99120.12;105245;1271;70227;-73
2022/08/04 06:13:42;;;;;;;15.90;14.60;;;;;;;29.61;100.00;99121.28;105046;1271;72222;-73
2022/08/04 06:16:12;;;;;;;21.40;17.60;;;;;;;29.56;100.00;99124.27;104990;1271;60539;-73
2022/08/04 06:18:42;;;;;;;15.50;14.10;;;;;;;29.42;100.00;99122.73;104972;1272;62608;-72
2022/08/04 06:21:11;;;;;;;17.20;15.30;;;;;;;29.29;100.00;99128.86;105247;1271;76057;-72
2022/08/04 06:23:41;;;;;;;13.80;12.80;;;;;;;29.29;100.00;99125.21;105461;1271;69269;-72
2022/08/04 06:26:09;;;;;;;;;;;;;;;29.39;100.00;99125.19;105001;1272;72024;-73
2022/08/04 06:28:36;;;;;;;14.90;13.50;;;;;;;29.45;100.00;99127.36;105214;1271;60610;-73
2022/08/04 06:31:06;;;;;;;13.60;12.50;;;;;;;29.31;100.00;99126.69;104959;1272;60903;-73
2022/08/04 06:33:33;;;;;;;14.50;13.30;;;;;;;29.19;100.00;99131.95;105256;1271;74517;-73
2022/08/04 06:36:02;;;;;;;13.90;12.60;;;;;;;29.21;100.00;99134.44;105248;1271;70062;-73
2022/08/04 06:38:31;;;;;;;15.00;13.70;;;;;;;29.24;100.00;99133.15;105248;1271;73461;-72
2022/08/04 06:41:02;;;;;;;13.50;12.40;;;;;;;29.31;100.00;99129.30;105232;1271;60366;-70
2022/08/04 06:43:30;;;;;;;14.60;13.10;;;;;;;29.32;100.00;99124.83;104954;1271;61111;-72
2022/08/04 06:46:01;;;;;;;12.30;11.40;;;;;;;29.34;100.00;99125.88;105399;1271;74436;-72
2022/08/04 06:48:30;;;;;;;13.60;12.50;;;;;;;29.35;100.00;99124.42;105206;1271;69129;-72
2022/08/04 06:50:58;;;;;;;13.30;12.20;;;;;;;29.35;100.00;99123.45;105216;1271;74335;-73
2022/08/04 06:53:26;;;;;;;12.40;11.40;;;;;;;29.23;100.00;99119.67;105321;1271;60585;-73
2022/08/04 06:55:53;;;;;;;12.20;11.10;;;;;;;29.07;100.00;99119.85;105199;1271;61569;-72
2022/08/04 06:58:21;;;;;;;12.10;11.00;;;;;;;29.02;100.00;99117.07;105219;1271;75511;-72
2022/08/04 07:00:49;;;;;;;12.20;11.00;;;;;;;28.99;100.00;99119.57;105239;1271;69216;-71
2022/08/04 07:03:17;;;;;;;11.60;10.70;;;;;;;28.97;100.00;99118.70;104937;1274;73907;-71
2022/08/04 07:05:47;;;;;;;11.90;11.00;;;;;;;28.88;100.00;99121.02;105189;1271;60492;-72
2022/08/04 07:08:14;;;;;;;;;;;;;;;28.86;100.00;99123.61;105399;1271;61094;-72
2022/08/04 07:10:41;;;;;;;12.00;11.10;;;;;;;28.70;100.00;99122.84;105217;1271;74284;-73
2022/08/04 07:13:09;;;;;;;11.20;10.30;;;;;;;28.41;100.00;99121.39;105249;1271;69537;-72
2022/08/04 07:15:40;;;;;;;11.40;10.50;;;;;;;28.17;100.00;99119.63;105185;1271;74427;-73
2022/08/04 07:18:06;;;;;;;12.10;11.10;;;;;;;27.88;100.00;99118.71;105260;1271;60474;-72
2022/08/04 07:20:33;;;;;;;11.10;10.20;;;;;;;27.55;100.00;99122.65;105263;1271;60916;-73
2022/08/04 07:23:01;;;;;;;10.80;9.70;;;;;;;27.26;100.00;99120.41;105239;1271;74614;-74
2022/08/04 07:25:27;;;;;;;11.20;10.40;;;;;;;27.00;100.00;99119.86;104946;1274;69758;-72
2022/08/04 07:27:54;;;;;;;12.20;11.00;;;;;;;26.92;100.00;99119.21;105243;1271;71544;-72
2022/08/04 07:30:23;;;;;;;10.50;9.70;;;;;;;26.88;100.00;99123.27;105173;1271;60594;-72
2022/08/04 07:32:50;;;;;;;11.30;10.30;;;;;;;26.76;100.00;99124.41;105286;1271;60783;-72
2022/08/04 07:35:17;;;;;;;11.20;10.20;;;;;;;26.67;100.00;99126.17;105198;1271;74408;-72
2022/08/04 07:37:43;;;;;;;11.70;10.80;;;;;;;26.62;100.00;99124.89;105221;1271;70599;-73
2022/08/04 07:40:10;;;;;;;11.10;10.20;;;;;;;26.49;100.00;99129.18;105141;1271;60378;-72
2022/08/04 07:42:37;;;;;;;11.90;11.00;;;;;;;26.38;100.00;99129.28;105161;1271;60446;-72
2022/08/04 07:45:04;;;;;;;10.40;9.60;;;;;;;26.43;100.00;99127.23;105124;1271;61295;-72
2022/08/04 07:47:30;;;;;;;10.80;10.00;;;;;;;26.49;100.00;99126.43;104936;1272;73715;-71
2022/08/04 07:49:57;;;;;;;11.20;10.20;;;;;;;26.40;100.00;99120.84;105173;1271;70279;-73
2022/08/04 07:52:25;;;;;;;10.80;9.90;;;;;;;26.34;100.00;99127.83;105196;1271;74440;-72
2022/08/04 07:54:52;;;;;;;11.00;10.10;;;;;;;26.34;100.00;99121.52;104897;1272;60565;-73
2022/08/04 07:57:19;;;;;;;10.30;9.40;;;;;;;26.44;100.00;99121.91;105159;1271;61025;-71
2022/08/04 07:59:47;;;;;;;10.10;9.40;;;;;;;26.55;100.00;99117.88;104914;1271;73342;-73
2022/08/04 08:02:15;;;;;;;10.50;9.60;;;;;;;26.63;100.00;99112.40;105170;1271;70620;-72
2022/08/04 08:04:42;;;;;;;9.50;8.60;;;;;;;26.80;100.00;99108.10;105186;1271;73724;-71
2022/08/04 08:07:09;;;;;;;10.00;8.90;;;;;;;26.90;100.00;99108.64;105259;1271;60569;-71
2022/08/04 08:09:35;;;;;;;9.50;8.60;;;;;;;26.88;100.00;99107.25;104894;1271;62102;-71
2022/08/04 08:12:02;;;;;;;9.40;8.60;;;;;;;26.86;100.00;99110.10;105163;1271;61252;-72
2022/08/04 08:14:30;;;;;;;9.40;8.60;;;;;;;26.88;100.00;99111.83;105170;1271;68713;-72
2022/08/04 08:17:01;;;;;;;8.90;8.20;;;;;;;26.85;100.00;99106.56;105178;1271;74472;-71
2022/08/04 08:19:29;;;;;;;9.00;8.30;;;;;;;26.90;100.00;99108.14;105174;1271;60517;-72
2022/08/04 08:21:57;;;;;;;9.00;8.10;;;;;;;26.94;100.00;99109.49;104941;1271;61184;-72
2022/08/04 08:24:24;;;;;;;8.80;7.90;;;;;;;26.98;100.00;99109.25;104621;1271;74448;-72
2022/08/04 08:26:50;;;;;;;8.60;8.00;;;;;;;26.93;100.00;99108.15;105232;1271;69230;-72
2022/08/04 08:29:18;;;;;;;8.70;8.00;;;;;;;26.94;100.00;99100.61;105187;1271;73155;-72
2022/08/04 08:31:45;;;;;;;8.00;7.20;;;;;;;27.03;100.00;99106.91;105229;1271;60550;-72
2022/08/04 08:34:13;;;;;;;7.30;6.70;;;;;;;27.05;100.00;99108.65;105203;1271;60449;-71
2022/08/04 08:36:50;;;;;;;7.60;6.80;;;;;;;27.10;100.00;99104.11;105210;1271;75022;-71
2022/08/04 08:39:23;;;;;;;8.00;7.30;;;;;;;27.29;100.00;99104.48;105215;1271;68155;-72
2022/08/04 08:42:01;;;;;;;6.80;6.30;;;;;;;27.42;100.00;99107.98;105259;1271;73010;-73
2022/08/04 08:44:59;;;;;;;7.30;6.70;;;;;;;27.49;100.00;99112.38;105183;1271;60552;-71
2022/08/04 08:47:28;;;;;;;7.90;7.30;;;;;;;27.64;100.00;99109.05;105210;1271;61058;-71
2022/08/04 08:50:09;;;;;;;7.40;6.80;;;;;;;27.67;100.00;99111.74;105245;1271;75469;-73
2022/08/04 08:52:51;;;;;;;7.70;7.20;;;;;;;27.64;100.00;99114.31;105200;1271;67316;-73
2022/08/04 08:55:41;;;;;;;7.10;6.60;;;;;;;27.63;100.00;99115.90;105159;1271;73125;-72
2022/08/04 08:58:31;;;;;;;7.70;7.10;;;;;;;27.60;100.00;99115.12;105162;1271;60517;-72
2022/08/04 09:01:10;;;;;;;8.10;7.30;;;;;;;27.59;100.00;99116.84;105190;1271;60830;-72
2022/08/04 09:04:28;;;;;;;7.40;6.80;;;;;;;27.63;100.00;99117.94;105217;1271;74957;-72
2022/08/04 09:07:36;;;;;;;6.90;6.30;;;;;;;27.63;100.00;99114.27;105143;1271;70429;-73
2022/08/04 09:10:21;;;;;;;6.50;6.10;;;;;;;27.67;100.00;99115.36;105003;1277;72124;-72
2022/08/04 09:13:12;;;;;;;7.30;6.60;;;;;;;27.75;100.00;99116.67;105029;1277;60486;-72
2022/08/04 09:15:48;;;;;;;6.60;5.90;;;;;;;27.88;100.00;99117.13;104658;1277;61369;-72
2022/08/04 09:18:45;;;;;;;6.40;6.00;;;;;;;28.02;100.00;99117.66;104610;1277;74844;-71
2022/08/04 09:21:34;;;;;;;6.20;5.60;;;;;;;28.13;100.00;99112.77;104668;1277;69416;-72
2022/08/04 09:24:22;;;;;;;6.70;6.20;;;;;;;28.34;100.00;99113.09;104625;1277;72399;-72
2022/08/04 09:26:57;;;;;;;6.70;6.20;;;;;;;28.41;100.00;99118.69;104634;1277;60664;-71
2022/08/04 09:29:33;;;;;;;7.00;6.40;;;;;;;28.38;100.00;99111.55;104607;1277;62416;-72
2022/08/04 09:32:33;;;;;;;5.90;5.40;;;;;;;28.48;100.00;99114.13;104697;1277;75444;-71
2022/08/04 09:35:41;;;;;;;6.00;5.50;;;;;;;28.55;100.00;99111.62;104680;1277;70477;-71
2022/08/04 09:38:28;;;;;;;5.60;5.00;;;;;;;28.68;100.00;99113.94;104766;1277;73243;-72
2022/08/04 09:41:32;;;;;;;6.10;5.50;;;;;;;28.70;100.00;99108.40;104520;1283;60530;-71
2022/08/04 09:44:14;;;;;;;5.60;5.10;;;;;;;28.67;100.00;99106.81;104475;1282;60668;-72
2022/08/04 09:46:50;;;;;;;5.20;4.70;;;;;;;28.76;100.00;99106.86;103455;1277;1191593;-72
2022/08/04 09:49:26;;;;;;;4.50;4.20;;;;;;;28.82;99.99;99103.16;104670;1277;69585;-72
2022/08/04 09:52:05;;;;;;;3.90;3.60;;;;;;;28.88;100.00;99095.02;104610;1277;73526;-72
2022/08/04 09:54:52;;;;;;;5.10;3.60;;;;;;;28.97;98.59;99091.77;104615;1277;60631;-72
2022/08/04 09:57:25;;;;;;;5.40;4.10;;;;;;;29.09;97.74;99090.67;104476;1278;60456;-72
2022/08/04 10:00:10;;;;;;;3.90;3.60;;;;;;;29.20;97.59;99085.70;104622;1277;75344;-73
2022/08/04 10:02:39;;;;;;;4.60;4.10;;;;;;;29.29;96.60;99081.50;104611;1278;69250;-72
2022/08/04 10:05:13;;;;;;;4.80;4.50;;;;;;;29.26;88.34;99082.63;104642;1277;73222;-72
2022/08/04 10:08:03;;;;;;;4.60;4.20;;;;;;;29.24;88.37;99080.73;104574;1277;60730;-73
2022/08/04 10:10:39;;;;;;;4.40;4.00;;;;;;;29.29;87.72;99084.05;104588;1277;60755;-72
2022/08/04 10:13:39;;;;;;;4.50;4.20;;;;;;;29.34;87.57;99084.64;104654;1277;74393;-71
2022/08/04 10:16:16;;;;;;;5.20;4.70;;;;;;;29.47;87.02;99080.52;104631;1277;70347;-72
2022/08/04 10:19:26;;;;;;;4.70;4.20;;;;;;;29.60;85.99;99082.04;104917;1271;74313;-71
2022/08/04 10:22:18;;;;;;;5.70;4.40;;;;;;;29.49;81.50;99087.32;104641;1277;60486;-72
2022/08/04 10:25:16;;;;;;;7.30;4.60;;;;;;;29.43;78.28;99085.00;104652;1277;61765;-72
2022/08/04 10:27:49;;;;;;;4.70;4.10;;;;;;;29.39;77.90;99084.52;104659;1277;73749;-72
2022/08/04 10:30:18;;;;;;;4.30;4.00;;;;;;;29.40;75.87;99083.84;104657;1277;70236;-71
2022/08/04 10:33:01;;;;;;;4.40;4.10;;;;;;;29.33;74.40;99082.78;104631;1277;74445;-71
2022/08/04 10:35:34;;;;;;;4.30;3.90;;;;;;;29.39;74.40;99084.44;104576;1277;60543;-71
2022/08/04 10:38:20;;;;;;;4.50;4.20;;;;;;;29.47;73.78;99080.63;104635;1277;60885;-72
2022/08/04 10:40:59;;;;;;;5.10;3.70;;;;;;;29.50;72.34;99073.45;104639;1277;74499;-73
2022/08/04 10:43:34;;;;;;;3.40;3.20;;;;;;;29.49;70.95;99072.56;104633;1277;70525;-71
2022/08/04 10:46:06;;;;;;;4.30;3.70;;;;;;;29.52;64.57;99069.17;104606;1277;73343;-71
2022/08/04 10:48:46;;;;;;;3.80;3.40;;;;;;;29.46;58.09;99072.41;104637;1277;60854;-72
2022/08/04 10:51:34;;;;;;;3.60;3.20;;;;;;;29.45;56.59;99077.39;104506;1277;60337;-72
2022/08/04 10:54:06;;;;;;;3.80;3.30;;;;;;;29.47;56.74;99074.23;104626;1277;75706;-72
2022/08/04 10:56:41;;;;;;;4.10;3.80;;;;;;;29.53;55.51;99071.61;104667;1277;70186;-73
2022/08/04 10:59:31;;;;;;;3.50;3.30;;;;;;;29.47;54.45;99072.08;104944;1271;74251;-73
2022/08/04 11:02:25;;;;;;;6.30;3.20;;;;;;;29.48;54.93;99070.38;105250;1271;60575;-72
2022/08/04 11:05:13;;;;;;;4.00;3.30;;;;;;;29.52;54.32;99069.04;105200;1271;60981;-72
2022/08/04 11:07:44;;;;;;;4.30;3.90;;;;;;;29.62;55.16;99069.94;105221;1271;75382;-72
2022/08/04 11:10:12;;;;;;;4.50;3.60;;;;;;;29.77;55.57;99065.55;105260;1271;69147;-73
2022/08/04 11:12:43;;;;;;;3.90;3.60;;;;;;;29.88;54.65;99070.32;105348;1270;74404;-71
2022/08/04 11:15:15;;;;;;;4.30;3.30;;;;;;;29.89;53.75;99065.32;105227;1270;60416;-71
2022/08/04 11:17:54;;;;;;;4.40;4.10;;;;;;;29.88;53.88;99064.98;105263;1270;61920;-72
2022/08/04 11:20:46;;;;;;;5.40;3.70;;;;;;;29.96;53.67;99066.55;105216;1271;74643;-72
2022/08/04 11:23:15;;;;;;;3.40;3.10;;;;;;;29.98;52.33;99068.33;105243;1271;68293;-71
2022/08/04 11:26:06;;;;;;;4.40;3.80;;;;;;;29.96;52.56;99067.95;105179;1271;74430;-71
2022/08/04 11:28:54;;;;;;;3.70;3.50;;;;;;;29.96;51.39;99067.91;105174;1271;60577;-72
2022/08/04 11:31:34;;;;;;;3.40;3.20;;;;;;;29.88;50.58;99066.69;105213;1271;60471;-72
2022/08/04 11:34:19;;;;;;;3.80;3.60;;;;;;;29.87;50.86;99069.95;105195;1269;74615;-71
2022/08/04 11:37:01;;;;;;;3.10;2.90;;;;;;;29.83;49.86;99070.23;105199;1271;69222;-71
2022/08/04 11:39:34;;;;;;;4.00;3.80;;;;;;;29.77;49.75;99070.59;105204;1271;73512;-72
2022/08/04 11:42:13;;;;;;;3.60;3.30;;;;;;;29.73;49.09;99062.52;105167;1271;60412;-72
2022/08/04 11:44:47;;;;;;;4.00;3.70;;;;;;;29.73;49.62;99066.98;105003;1271;60878;-72
2022/08/04 11:47:37;;;;;;;4.20;3.90;;;;;;;29.78;49.72;99061.79;104979;1271;74571;-72
2022/08/04 11:50:33;;;;;;;4.00;3.70;;;;;;;29.83;49.81;99065.41;105171;1271;69395;-72
2022/08/04 11:53:03;;;;;;;3.60;3.30;;;;;;;29.88;49.20;99058.15;105181;1271;74777;-71
2022/08/04 11:55:31;;;;;;;3.60;3.30;;;;;;;29.88;49.65;99053.95;105184;1269;60495;-71
2022/08/04 11:57:58;;;;;;;3.80;3.50;;;;;;;29.94;49.64;99055.96;105269;1271;60573;-71
2022/08/04 12:00:28;;;;;;;3.90;3.70;;;;;;;29.99;49.13;99053.34;105225;1271;75609;-71
2022/08/04 12:03:33;;;;;;;3.80;3.50;;;;;;;30.02;49.31;99050.10;105180;1271;66616;-72